createdAt,value
2023-05-10T00:03:53.560Z,10.55
2023-05-10T00:18:53.971Z,10.42
2023-05-10T00:33:53.892Z,10.29
2023-05-10T00:48:54.484Z,10.30
2023-05-10T01:03:55.476Z,10.11
2023-05-10T01:18:55.488Z,10.23
2023-05-10T01:33:55.791Z,10.33
2023-05-10T01:48:57.055Z,10.27
2023-05-10T02:03:57.010Z,10.11
2023-05-10T02:18:57.429Z,9.90
2023-05-10T02:33:57.681Z,9.69
2023-05-10T02:48:58.056Z,9.64
2023-05-10T03:03:58.353Z,9.46
2023-05-10T03:18:58.591Z,9.42
2023-05-10T03:33:58.912Z,9.29
2023-05-10T03:48:59.647Z,9.33
2023-05-10T04:03:59.615Z,9.79
2023-05-10T04:18:59.831Z,10.40
2023-05-10T04:33:59.930Z,11.24
2023-05-10T04:49:00.421Z,12.53
2023-05-10T05:04:01.233Z,13.39
2023-05-10T05:19:01.375Z,14.24
2023-05-10T05:34:01.281Z,15.35
2023-05-10T05:49:01.898Z,16.02
2023-05-10T06:04:02.535Z,17.55
2023-05-10T06:19:02.855Z,17.92
2023-05-10T06:34:02.911Z,18.55
2023-05-10T06:49:02.941Z,18.98
2023-05-10T07:04:03.041Z,19.58
2023-05-10T07:19:03.583Z,20.03
2023-05-10T07:34:03.707Z,20.13
2023-05-10T07:49:03.760Z,21.06
2023-05-10T08:04:04.072Z,21.22
2023-05-10T08:19:03.999Z,22.09
2023-05-10T08:34:03.928Z,22.72
2023-05-10T08:49:04.120Z,23.73
2023-05-10T09:04:04.185Z,24.09
2023-05-10T09:19:04.540Z,24.61
2023-05-10T09:34:04.418Z,24.40
2023-05-10T09:49:04.528Z,24.12
2023-05-10T10:04:04.620Z,24.96
2023-05-10T10:19:05.300Z,25.15
2023-05-10T10:34:05.281Z,25.73
2023-05-10T10:49:05.585Z,25.95
2023-05-10T11:04:05.821Z,25.51
2023-05-10T11:19:06.253Z,26.01
2023-05-10T11:34:07.026Z,26.13
2023-05-10T11:49:07.125Z,26.70
2023-05-10T12:04:07.324Z,26.52
2023-05-10T12:19:07.435Z,26.94
2023-05-10T12:34:07.367Z,27.39
2023-05-10T12:49:09.743Z,28.15
2023-05-10T13:04:10.721Z,28.22
2023-05-10T13:19:12.207Z,28.98
2023-05-10T13:34:12.225Z,29.87
2023-05-10T13:49:12.279Z,29.86
2023-05-10T14:04:12.309Z,30.22
2023-05-10T14:19:12.771Z,31.23
2023-05-10T14:34:12.771Z,31.89
2023-05-10T14:49:13.481Z,29.23
2023-05-10T15:04:13.683Z,28.06
2023-05-10T15:19:14.951Z,28.54
2023-05-10T15:34:16.042Z,28.52
2023-05-10T15:49:15.911Z,26.66
2023-05-10T16:04:16.243Z,25.95
2023-05-10T16:19:16.338Z,24.87
2023-05-10T16:34:16.368Z,24.05
2023-05-10T16:49:18.275Z,22.62
2023-05-10T17:04:18.561Z,21.52
2023-05-10T17:19:18.522Z,20.48
2023-05-10T17:34:18.972Z,19.77
2023-05-10T17:49:19.167Z,18.98
2023-05-10T18:04:19.675Z,18.17
2023-05-10T18:19:19.553Z,17.56
2023-05-10T18:34:19.751Z,16.97
2023-05-10T18:49:22.182Z,16.30
2023-05-10T19:04:24.105Z,16.00
2023-05-10T19:19:24.470Z,15.72
2023-05-10T19:34:25.425Z,15.39
2023-05-10T19:49:25.482Z,14.88
2023-05-10T20:04:28.489Z,14.22
2023-05-10T20:19:28.972Z,13.70
2023-05-10T20:34:29.187Z,13.66
2023-05-10T20:49:29.368Z,13.33
2023-05-10T21:04:29.613Z,13.04
2023-05-10T21:19:30.035Z,12.67
2023-05-10T21:34:30.390Z,12.27
2023-05-10T21:49:30.612Z,11.79
2023-05-10T22:04:30.973Z,11.76
2023-05-10T22:19:32.178Z,11.65
2023-05-10T22:34:32.443Z,11.79
2023-05-10T22:49:32.923Z,11.78
2023-05-10T23:04:34.244Z,11.73
2023-05-10T23:19:34.245Z,11.37
2023-05-10T23:34:34.183Z,11.06
2023-05-10T23:49:35.591Z,10.64
